sensor_id;sensor_type;location;lat;lon;timestamp;P1;durP1;ratioP1;P2;durP2;ratioP2
22967;SDS011;11650;48.106;-1.696;2024-02-14T00:01:17;6.33;;;2.47;;
22967;SDS011;11650;48.106;-1.696;2024-02-14T00:03:43;9.27;;;2.13;;
22967;SDS011;11650;48.106;-1.696;2024-02-14T00:06:09;10.50;;;2.30;;
22967;SDS011;11650;48.106;-1.696;2024-02-14T00:08:36;7.03;;;2.30;;
22967;SDS011;11650;48.106;-1.696;2024-02-14T00:11:02;6.93;;;1.80;;
22967;SDS011;11650;48.106;-1.696;2024-02-14T00:13:28;6.67;;;1.90;;
22967;SDS011;11650;48.106;-1.696;2024-02-14T00:15:54;8.13;;;2.07;;
22967;SDS011;11650;48.106;-1.696;2024-02-14T00:18:21;7.10;;;2.30;;
22967;SDS011;11650;48.106;-1.696;2024-02-14T00:20:47;6.40;;;2.00;;
22967;SDS011;11650;48.106;-1.696;2024-02-14T00:23:13;10.10;;;2.20;;
22967;SDS011;11650;48.106;-1.696;2024-02-14T00:25:39;8.27;;;2.00;;
22967;SDS011;11650;48.106;-1.696;2024-02-14T00:28:05;8.50;;;1.97;;
22967;SDS011;11650;48.106;-1.696;2024-02-14T00:30:31;5.30;;;1.83;;
22967;SDS011;11650;48.106;-1.696;2024-02-14T00:32:56;8.23;;;2.50;;
22967;SDS011;11650;48.106;-1.696;2024-02-14T00:35:22;9.90;;;1.80;;
22967;SDS011;11650;48.106;-1.696;2024-02-14T00:37:48;8.83;;;2.07;;
22967;SDS011;11650;48.106;-1.696;2024-02-14T00:40:13;10.00;;;2.17;;
22967;SDS011;11650;48.106;-1.696;2024-02-14T00:42:39;9.60;;;2.00;;
22967;SDS011;11650;48.106;-1.696;2024-02-14T00:45:06;9.00;;;1.77;;
22967;SDS011;11650;48.106;-1.696;2024-02-14T00:47:35;6.40;;;2.17;;
22967;SDS011;11650;48.106;-1.696;2024-02-14T00:50:01;8.27;;;2.70;;
22967;SDS011;11650;48.106;-1.696;2024-02-14T00:52:27;10.47;;;2.00;;
22967;SDS011;11650;48.106;-1.696;2024-02-14T00:54:54;9.40;;;1.70;;
22967;SDS011;11650;48.106;-1.696;2024-02-14T00:57:19;8.57;;;2.00;;
22967;SDS011;11650;48.106;-1.696;2024-02-14T00:59:45;10.80;;;2.37;;
22967;SDS011;11650;48.106;-1.696;2024-02-14T01:02:11;8.23;;;2.00;;
22967;SDS011;11650;48.106;-1.696;2024-02-14T01:04:37;8.43;;;2.07;;
22967;SDS011;11650;48.106;-1.696;2024-02-14T01:07:05;13.40;;;2.67;;
22967;SDS011;11650;48.106;-1.696;2024-02-14T01:09:31;15.07;;;2.57;;
22967;SDS011;11650;48.106;-1.696;2024-02-14T01:11:57;14.33;;;3.20;;
22967;SDS011;11650;48.106;-1.696;2024-02-14T01:14:23;12.90;;;2.43;;
22967;SDS011;11650;48.106;-1.696;2024-02-14T01:16:49;15.20;;;3.20;;
22967;SDS011;11650;48.106;-1.696;2024-02-14T01:19:16;12.23;;;3.00;;
22967;SDS011;11650;48.106;-1.696;2024-02-14T01:21:44;17.23;;;3.40;;
22967;SDS011;11650;48.106;-1.696;2024-02-14T01:24:13;14.83;;;2.80;;
22967;SDS011;11650;48.106;-1.696;2024-02-14T01:26:39;19.97;;;3.53;;
22967;SDS011;11650;48.106;-1.696;2024-02-14T01:29:05;12.63;;;3.00;;
22967;SDS011;11650;48.106;-1.696;2024-02-14T01:31:31;20.20;;;3.40;;
22967;SDS011;11650;48.106;-1.696;2024-02-14T01:33:58;18.63;;;3.60;;
22967;SDS011;11650;48.106;-1.696;2024-02-14T01:36:24;20.07;;;3.80;;
22967;SDS011;11650;48.106;-1.696;2024-02-14T01:38:49;21.53;;;3.87;;
22967;SDS011;11650;48.106;-1.696;2024-02-14T01:41:15;27.30;;;3.70;;
22967;SDS011;11650;48.106;-1.696;2024-02-14T01:43:41;19.27;;;3.23;;
22967;SDS011;11650;48.106;-1.696;2024-02-14T01:46:06;23.63;;;4.30;;
22967;SDS011;11650;48.106;-1.696;2024-02-14T01:48:35;22.70;;;3.87;;
22967;SDS011;11650;48.106;-1.696;2024-02-14T01:51:02;22.40;;;3.90;;
22967;SDS011;11650;48.106;-1.696;2024-02-14T01:53:30;26.27;;;4.00;;
22967;SDS011;11650;48.106;-1.696;2024-02-14T01:55:57;23.37;;;4.10;;
22967;SDS011;11650;48.106;-1.696;2024-02-14T01:58:24;23.70;;;4.03;;
22967;SDS011;11650;48.106;-1.696;2024-02-14T02:00:51;25.33;;;4.70;;
22967;SDS011;11650;48.106;-1.696;2024-02-14T02:03:22;28.30;;;4.30;;
22967;SDS011;11650;48.106;-1.696;2024-02-14T02:05:48;30.07;;;4.17;;
22967;SDS011;11650;48.106;-1.696;2024-02-14T02:08:14;24.93;;;4.63;;
22967;SDS011;11650;48.106;-1.696;2024-02-14T02:10:40;34.20;;;4.73;;
22967;SDS011;11650;48.106;-1.696;2024-02-14T02:13:05;22.87;;;4.13;;
22967;SDS011;11650;48.106;-1.696;2024-02-14T02:15:31;23.90;;;4.10;;
22967;SDS011;11650;48.106;-1.696;2024-02-14T02:17:57;26.53;;;4.83;;
22967;SDS011;11650;48.106;-1.696;2024-02-14T02:20:24;26.50;;;4.60;;
22967;SDS011;11650;48.106;-1.696;2024-02-14T02:22:52;29.63;;;4.70;;
22967;SDS011;11650;48.106;-1.696;2024-02-14T02:25:18;31.37;;;4.63;;
22967;SDS011;11650;48.106;-1.696;2024-02-14T02:27:48;29.80;;;4.97;;
22967;SDS011;11650;48.106;-1.696;2024-02-14T02:30:14;37.77;;;6.50;;
22967;SDS011;11650;48.106;-1.696;2024-02-14T02:32:39;25.30;;;4.57;;
22967;SDS011;11650;48.106;-1.696;2024-02-14T02:35:07;32.80;;;4.97;;
22967;SDS011;11650;48.106;-1.696;2024-02-14T02:37:34;32.23;;;4.90;;
22967;SDS011;11650;48.106;-1.696;2024-02-14T02:40:00;29.00;;;5.27;;
22967;SDS011;11650;48.106;-1.696;2024-02-14T02:42:26;38.83;;;5.50;;
22967;SDS011;11650;48.106;-1.696;2024-02-14T02:44:52;31.97;;;4.87;;
22967;SDS011;11650;48.106;-1.696;2024-02-14T02:47:17;31.53;;;5.20;;
22967;SDS011;11650;48.106;-1.696;2024-02-14T02:49:43;27.47;;;4.57;;
22967;SDS011;11650;48.106;-1.696;2024-02-14T02:52:12;34.90;;;5.43;;
22967;SDS011;11650;48.106;-1.696;2024-02-14T02:54:38;37.03;;;5.43;;
22967;SDS011;11650;48.106;-1.696;2024-02-14T02:57:09;29.43;;;5.03;;
22967;SDS011;11650;48.106;-1.696;2024-02-14T02:59:35;32.40;;;5.23;;
22967;SDS011;11650;48.106;-1.696;2024-02-14T03:02:01;23.43;;;4.60;;
22967;SDS011;11650;48.106;-1.696;2024-02-14T03:04:27;32.90;;;4.93;;
22967;SDS011;11650;48.106;-1.696;2024-02-14T03:06:54;33.47;;;4.50;;
22967;SDS011;11650;48.106;-1.696;2024-02-14T03:09:20;35.50;;;5.80;;
22967;SDS011;11650;48.106;-1.696;2024-02-14T03:11:47;35.13;;;4.60;;
22967;SDS011;11650;48.106;-1.696;2024-02-14T03:14:13;30.23;;;4.67;;
22967;SDS011;11650;48.106;-1.696;2024-02-14T03:16:39;28.73;;;4.40;;
22967;SDS011;11650;48.106;-1.696;2024-02-14T03:19:05;25.23;;;4.47;;
22967;SDS011;11650;48.106;-1.696;2024-02-14T03:21:31;31.13;;;4.30;;
22967;SDS011;11650;48.106;-1.696;2024-02-14T03:24:01;26.23;;;4.13;;
22967;SDS011;11650;48.106;-1.696;2024-02-14T03:26:30;30.93;;;4.97;;
22967;SDS011;11650;48.106;-1.696;2024-02-14T03:28:58;27.80;;;3.97;;
22967;SDS011;11650;48.106;-1.696;2024-02-14T03:31:25;27.93;;;4.20;;
22967;SDS011;11650;48.106;-1.696;2024-02-14T03:33:51;30.20;;;4.00;;
22967;SDS011;11650;48.106;-1.696;2024-02-14T03:36:17;20.60;;;3.63;;
22967;SDS011;11650;48.106;-1.696;2024-02-14T03:38:43;25.20;;;3.50;;
22967;SDS011;11650;48.106;-1.696;2024-02-14T03:41:11;20.90;;;4.20;;
22967;SDS011;11650;48.106;-1.696;2024-02-14T03:43:38;28.60;;;3.77;;
22967;SDS011;11650;48.106;-1.696;2024-02-14T03:46:03;25.80;;;3.73;;
22967;SDS011;11650;48.106;-1.696;2024-02-14T03:48:30;27.50;;;4.03;;
22967;SDS011;11650;48.106;-1.696;2024-02-14T03:50:56;28.87;;;4.10;;
22967;SDS011;11650;48.106;-1.696;2024-02-14T03:53:22;27.70;;;3.80;;
22967;SDS011;11650;48.106;-1.696;2024-02-14T03:55:48;23.10;;;3.03;;
22967;SDS011;11650;48.106;-1.696;2024-02-14T03:58:14;25.77;;;4.10;;
22967;SDS011;11650;48.106;-1.696;2024-02-14T04:00:42;24.30;;;4.43;;
22967;SDS011;11650;48.106;-1.696;2024-02-14T04:03:11;22.27;;;3.57;;
22967;SDS011;11650;48.106;-1.696;2024-02-14T04:05:37;24.60;;;3.87;;
22967;SDS011;11650;48.106;-1.696;2024-02-14T04:08:03;29.87;;;4.13;;
22967;SDS011;11650;48.106;-1.696;2024-02-14T04:10:29;31.67;;;3.90;;
22967;SDS011;11650;48.106;-1.696;2024-02-14T04:12:54;30.53;;;4.23;;
22967;SDS011;11650;48.106;-1.696;2024-02-14T04:15:20;31.63;;;4.40;;
22967;SDS011;11650;48.106;-1.696;2024-02-14T04:17:46;19.70;;;3.53;;
22967;SDS011;11650;48.106;-1.696;2024-02-14T04:20:12;27.87;;;3.73;;
22967;SDS011;11650;48.106;-1.696;2024-02-14T04:22:37;19.57;;;3.27;;
22967;SDS011;11650;48.106;-1.696;2024-02-14T04:25:03;22.00;;;3.53;;
22967;SDS011;11650;48.106;-1.696;2024-02-14T04:27:29;22.10;;;3.93;;
22967;SDS011;11650;48.106;-1.696;2024-02-14T04:29:55;26.90;;;3.60;;
22967;SDS011;11650;48.106;-1.696;2024-02-14T04:32:20;27.53;;;4.00;;
22967;SDS011;11650;48.106;-1.696;2024-02-14T04:34:46;18.03;;;3.07;;
22967;SDS011;11650;48.106;-1.696;2024-02-14T04:37:11;21.23;;;3.63;;
22967;SDS011;11650;48.106;-1.696;2024-02-14T04:39:41;27.23;;;3.23;;
22967;SDS011;11650;48.106;-1.696;2024-02-14T04:42:07;23.23;;;2.87;;
22967;SDS011;11650;48.106;-1.696;2024-02-14T04:44:33;19.60;;;2.50;;
22967;SDS011;11650;48.106;-1.696;2024-02-14T04:47:02;24.30;;;3.07;;
22967;SDS011;11650;48.106;-1.696;2024-02-14T04:49:28;23.27;;;3.47;;
22967;SDS011;11650;48.106;-1.696;2024-02-14T04:51:56;15.63;;;3.17;;
22967;SDS011;11650;48.106;-1.696;2024-02-14T04:54:23;14.70;;;2.70;;
22967;SDS011;11650;48.106;-1.696;2024-02-14T04:56:48;20.67;;;3.07;;
22967;SDS011;11650;48.106;-1.696;2024-02-14T04:59:14;22.70;;;2.90;;
22967;SDS011;11650;48.106;-1.696;2024-02-14T05:01:40;22.10;;;2.70;;
22967;SDS011;11650;48.106;-1.696;2024-02-14T05:04:06;19.57;;;2.90;;
22967;SDS011;11650;48.106;-1.696;2024-02-14T05:06:32;21.07;;;2.80;;
22967;SDS011;11650;48.106;-1.696;2024-02-14T05:08:57;17.50;;;2.70;;
22967;SDS011;11650;48.106;-1.696;2024-02-14T05:11:23;21.40;;;3.20;;
22967;SDS011;11650;48.106;-1.696;2024-02-14T05:13:49;23.63;;;3.57;;
22967;SDS011;11650;48.106;-1.696;2024-02-14T05:16:20;21.50;;;3.17;;
22967;SDS011;11650;48.106;-1.696;2024-02-14T05:18:46;24.33;;;3.33;;
22967;SDS011;11650;48.106;-1.696;2024-02-14T05:21:13;23.90;;;3.43;;
22967;SDS011;11650;48.106;-1.696;2024-02-14T05:23:38;20.30;;;4.20;;
22967;SDS011;11650;48.106;-1.696;2024-02-14T05:26:04;26.87;;;3.23;;
22967;SDS011;11650;48.106;-1.696;2024-02-14T05:28:31;20.63;;;3.60;;
22967;SDS011;11650;48.106;-1.696;2024-02-14T05:30:56;16.87;;;2.90;;
22967;SDS011;11650;48.106;-1.696;2024-02-14T05:33:23;17.47;;;3.20;;
22967;SDS011;11650;48.106;-1.696;2024-02-14T05:35:49;19.50;;;2.87;;
22967;SDS011;11650;48.106;-1.696;2024-02-14T05:38:15;21.90;;;3.27;;
22967;SDS011;11650;48.106;-1.696;2024-02-14T05:40:41;15.77;;;2.83;;
22967;SDS011;11650;48.106;-1.696;2024-02-14T05:43:09;19.63;;;3.23;;
22967;SDS011;11650;48.106;-1.696;2024-02-14T05:45:35;24.60;;;3.70;;
22967;SDS011;11650;48.106;-1.696;2024-02-14T05:48:00;27.43;;;3.13;;
22967;SDS011;11650;48.106;-1.696;2024-02-14T05:50:26;21.73;;;3.73;;
22967;SDS011;11650;48.106;-1.696;2024-02-14T05:52:52;30.03;;;3.53;;
22967;SDS011;11650;48.106;-1.696;2024-02-14T05:55:18;26.80;;;3.77;;
22967;SDS011;11650;48.106;-1.696;2024-02-14T05:57:43;26.60;;;3.97;;
22967;SDS011;11650;48.106;-1.696;2024-02-14T06:00:09;20.03;;;3.30;;
22967;SDS011;11650;48.106;-1.696;2024-02-14T06:02:35;20.63;;;3.97;;
22967;SDS011;11650;48.106;-1.696;2024-02-14T06:05:02;14.77;;;3.40;;
22967;SDS011;11650;48.106;-1.696;2024-02-14T06:07:27;24.37;;;3.60;;
22967;SDS011;11650;48.106;-1.696;2024-02-14T06:09:53;32.67;;;4.30;;
22967;SDS011;11650;48.106;-1.696;2024-02-14T06:12:19;24.53;;;4.37;;
22967;SDS011;11650;48.106;-1.696;2024-02-14T06:14:47;31.67;;;3.97;;
22967;SDS011;11650;48.106;-1.696;2024-02-14T06:17:14;23.67;;;4.03;;
22967;SDS011;11650;48.106;-1.696;2024-02-14T06:19:39;27.73;;;3.93;;
22967;SDS011;11650;48.106;-1.696;2024-02-14T06:22:06;32.90;;;4.00;;
22967;SDS011;11650;48.106;-1.696;2024-02-14T06:24:31;26.40;;;4.53;;
22967;SDS011;11650;48.106;-1.696;2024-02-14T06:26:57;25.93;;;3.87;;
22967;SDS011;11650;48.106;-1.696;2024-02-14T06:29:22;29.40;;;4.90;;
22967;SDS011;11650;48.106;-1.696;2024-02-14T06:31:48;25.90;;;3.70;;
22967;SDS011;11650;48.106;-1.696;2024-02-14T06:34:14;19.10;;;3.50;;
22967;SDS011;11650;48.106;-1.696;2024-02-14T06:36:40;27.90;;;4.07;;
22967;SDS011;11650;48.106;-1.696;2024-02-14T06:39:06;27.10;;;4.63;;
22967;SDS011;11650;48.106;-1.696;2024-02-14T06:41:32;28.20;;;3.90;;
22967;SDS011;11650;48.106;-1.696;2024-02-14T06:43:57;24.70;;;3.60;;
22967;SDS011;11650;48.106;-1.696;2024-02-14T06:46:23;37.20;;;4.43;;
22967;SDS011;11650;48.106;-1.696;2024-02-14T06:48:48;34.27;;;4.70;;
22967;SDS011;11650;48.106;-1.696;2024-02-14T06:51:14;31.20;;;3.93;;
22967;SDS011;11650;48.106;-1.696;2024-02-14T06:53:40;29.40;;;4.17;;
22967;SDS011;11650;48.106;-1.696;2024-02-14T06:56:05;34.67;;;5.13;;
22967;SDS011;11650;48.106;-1.696;2024-02-14T06:58:31;25.97;;;4.17;;
22967;SDS011;11650;48.106;-1.696;2024-02-14T07:00:57;29.70;;;4.10;;
22967;SDS011;11650;48.106;-1.696;2024-02-14T07:03:22;32.40;;;3.87;;
22967;SDS011;11650;48.106;-1.696;2024-02-14T07:05:48;28.63;;;4.07;;
22967;SDS011;11650;48.106;-1.696;2024-02-14T07:08:13;26.83;;;3.63;;
22967;SDS011;11650;48.106;-1.696;2024-02-14T07:10:40;24.00;;;3.70;;
22967;SDS011;11650;48.106;-1.696;2024-02-14T07:13:05;27.17;;;3.77;;
22967;SDS011;11650;48.106;-1.696;2024-02-14T07:15:31;25.63;;;4.80;;
22967;SDS011;11650;48.106;-1.696;2024-02-14T07:17:57;28.53;;;4.03;;
22967;SDS011;11650;48.106;-1.696;2024-02-14T07:20:23;28.50;;;4.77;;
22967;SDS011;11650;48.106;-1.696;2024-02-14T07:22:51;23.47;;;4.17;;
22967;SDS011;11650;48.106;-1.696;2024-02-14T07:25:18;25.40;;;4.57;;
22967;SDS011;11650;48.106;-1.696;2024-02-14T07:27:44;29.03;;;4.17;;
22967;SDS011;11650;48.106;-1.696;2024-02-14T07:30:11;24.20;;;3.90;;
22967;SDS011;11650;48.106;-1.696;2024-02-14T07:32:37;26.37;;;4.00;;
22967;SDS011;11650;48.106;-1.696;2024-02-14T07:35:03;26.67;;;3.83;;
22967;SDS011;11650;48.106;-1.696;2024-02-14T07:37:30;25.03;;;3.53;;
22967;SDS011;11650;48.106;-1.696;2024-02-14T07:39:55;28.53;;;4.10;;
22967;SDS011;11650;48.106;-1.696;2024-02-14T07:42:21;22.67;;;4.13;;
22967;SDS011;11650;48.106;-1.696;2024-02-14T07:44:47;30.77;;;3.90;;
22967;SDS011;11650;48.106;-1.696;2024-02-14T07:47:12;25.87;;;4.07;;
22967;SDS011;11650;48.106;-1.696;2024-02-14T07:49:39;23.07;;;3.57;;
22967;SDS011;11650;48.106;-1.696;2024-02-14T07:52:06;18.17;;;2.73;;
22967;SDS011;11650;48.106;-1.696;2024-02-14T07:54:31;24.17;;;3.90;;
22967;SDS011;11650;48.106;-1.696;2024-02-14T07:56:57;17.90;;;3.83;;
22967;SDS011;11650;48.106;-1.696;2024-02-14T07:59:22;21.90;;;3.80;;
22967;SDS011;11650;48.106;-1.696;2024-02-14T08:01:48;21.03;;;3.43;;
22967;SDS011;11650;48.106;-1.696;2024-02-14T08:04:13;21.27;;;3.03;;
22967;SDS011;11650;48.106;-1.696;2024-02-14T08:06:40;24.13;;;3.87;;
22967;SDS011;11650;48.106;-1.696;2024-02-14T08:09:06;19.67;;;3.50;;
22967;SDS011;11650;48.106;-1.696;2024-02-14T08:11:34;19.63;;;3.63;;
22967;SDS011;11650;48.106;-1.696;2024-02-14T08:14:00;23.67;;;4.10;;
22967;SDS011;11650;48.106;-1.696;2024-02-14T08:16:27;23.87;;;3.60;;
22967;SDS011;11650;48.106;-1.696;2024-02-14T08:18:52;20.70;;;3.80;;
22967;SDS011;11650;48.106;-1.696;2024-02-14T08:21:24;23.10;;;4.00;;
22967;SDS011;11650;48.106;-1.696;2024-02-14T08:23:51;16.50;;;3.20;;
22967;SDS011;11650;48.106;-1.696;2024-02-14T08:26:17;22.93;;;4.17;;
22967;SDS011;11650;48.106;-1.696;2024-02-14T08:28:43;26.90;;;4.07;;
22967;SDS011;11650;48.106;-1.696;2024-02-14T08:31:11;24.23;;;3.70;;
22967;SDS011;11650;48.106;-1.696;2024-02-14T08:33:37;22.03;;;3.83;;
22967;SDS011;11650;48.106;-1.696;2024-02-14T08:36:03;30.50;;;3.93;;
22967;SDS011;11650;48.106;-1.696;2024-02-14T08:38:35;28.40;;;4.03;;
22967;SDS011;11650;48.106;-1.696;2024-02-14T08:41:01;22.47;;;4.23;;
22967;SDS011;11650;48.106;-1.696;2024-02-14T08:43:27;23.30;;;3.83;;
22967;SDS011;11650;48.106;-1.696;2024-02-14T08:45:53;24.27;;;4.17;;
22967;SDS011;11650;48.106;-1.696;2024-02-14T08:48:20;17.17;;;3.20;;
22967;SDS011;11650;48.106;-1.696;2024-02-14T08:50:46;19.03;;;3.23;;
22967;SDS011;11650;48.106;-1.696;2024-02-14T08:53:12;23.33;;;4.43;;
22967;SDS011;11650;48.106;-1.696;2024-02-14T08:55:39;28.00;;;3.87;;
22967;SDS011;11650;48.106;-1.696;2024-02-14T08:58:05;20.00;;;3.07;;
22967;SDS011;11650;48.106;-1.696;2024-02-14T09:00:31;34.97;;;3.90;;
22967;SDS011;11650;48.106;-1.696;2024-02-14T09:03:00;23.23;;;4.00;;
22967;SDS011;11650;48.106;-1.696;2024-02-14T09:05:25;19.40;;;3.50;;
22967;SDS011;11650;48.106;-1.696;2024-02-14T09:07:53;24.83;;;3.43;;
22967;SDS011;11650;48.106;-1.696;2024-02-14T09:10:19;24.50;;;4.27;;
22967;SDS011;11650;48.106;-1.696;2024-02-14T09:12:44;22.27;;;3.47;;
22967;SDS011;11650;48.106;-1.696;2024-02-14T09:15:10;25.93;;;3.70;;
22967;SDS011;11650;48.106;-1.696;2024-02-14T09:17:37;27.67;;;3.97;;
22967;SDS011;11650;48.106;-1.696;2024-02-14T09:20:04;19.70;;;3.03;;
22967;SDS011;11650;48.106;-1.696;2024-02-14T09:22:32;24.17;;;4.10;;
22967;SDS011;11650;48.106;-1.696;2024-02-14T09:25:00;26.80;;;4.27;;
22967;SDS011;11650;48.106;-1.696;2024-02-14T09:27:29;26.17;;;4.27;;
22967;SDS011;11650;48.106;-1.696;2024-02-14T09:29:58;22.47;;;3.97;;
22967;SDS011;11650;48.106;-1.696;2024-02-14T09:32:24;18.47;;;2.73;;
22967;SDS011;11650;48.106;-1.696;2024-02-14T09:34:50;27.30;;;4.50;;
22967;SDS011;11650;48.106;-1.696;2024-02-14T09:37:16;25.37;;;4.40;;
22967;SDS011;11650;48.106;-1.696;2024-02-14T09:39:41;26.73;;;3.97;;
22967;SDS011;11650;48.106;-1.696;2024-02-14T09:42:09;21.87;;;3.87;;
22967;SDS011;11650;48.106;-1.696;2024-02-14T09:44:37;28.93;;;4.83;;
22967;SDS011;11650;48.106;-1.696;2024-02-14T09:47:05;22.93;;;3.63;;
22967;SDS011;11650;48.106;-1.696;2024-02-14T09:49:32;26.37;;;4.37;;
22967;SDS011;11650;48.106;-1.696;2024-02-14T09:52:01;26.43;;;4.13;;
22967;SDS011;11650;48.106;-1.696;2024-02-14T09:54:29;22.87;;;3.70;;
22967;SDS011;11650;48.106;-1.696;2024-02-14T09:56:56;20.40;;;3.60;;
22967;SDS011;11650;48.106;-1.696;2024-02-14T09:59:23;19.77;;;4.10;;
22967;SDS011;11650;48.106;-1.696;2024-02-14T10:01:49;23.03;;;3.80;;
22967;SDS011;11650;48.106;-1.696;2024-02-14T10:04:16;26.53;;;3.67;;
22967;SDS011;11650;48.106;-1.696;2024-02-14T10:06:44;23.10;;;4.10;;
22967;SDS011;11650;48.106;-1.696;2024-02-14T10:09:09;27.77;;;4.17;;
22967;SDS011;11650;48.106;-1.696;2024-02-14T10:11:35;18.70;;;3.67;;
22967;SDS011;11650;48.106;-1.696;2024-02-14T10:14:02;14.70;;;2.83;;
22967;SDS011;11650;48.106;-1.696;2024-02-14T10:16:29;19.53;;;3.50;;
22967;SDS011;11650;48.106;-1.696;2024-02-14T10:18:55;23.87;;;3.47;;
22967;SDS011;11650;48.106;-1.696;2024-02-14T10:21:23;25.63;;;3.67;;
22967;SDS011;11650;48.106;-1.696;2024-02-14T10:23:50;19.37;;;3.20;;
22967;SDS011;11650;48.106;-1.696;2024-02-14T10:26:17;26.23;;;3.87;;
22967;SDS011;11650;48.106;-1.696;2024-02-14T10:28:43;24.33;;;3.70;;
22967;SDS011;11650;48.106;-1.696;2024-02-14T10:31:10;14.30;;;2.77;;
22967;SDS011;11650;48.106;-1.696;2024-02-14T10:33:36;17.13;;;2.83;;
22967;SDS011;11650;48.106;-1.696;2024-02-14T10:36:02;20.80;;;3.47;;
22967;SDS011;11650;48.106;-1.696;2024-02-14T10:38:31;25.53;;;3.47;;
22967;SDS011;11650;48.106;-1.696;2024-02-14T10:41:00;20.93;;;3.40;;
22967;SDS011;11650;48.106;-1.696;2024-02-14T10:43:27;15.57;;;2.90;;
22967;SDS011;11650;48.106;-1.696;2024-02-14T10:45:53;17.27;;;3.23;;
22967;SDS011;11650;48.106;-1.696;2024-02-14T10:48:22;21.30;;;4.17;;
22967;SDS011;11650;48.106;-1.696;2024-02-14T10:50:54;21.13;;;4.30;;
22967;SDS011;11650;48.106;-1.696;2024-02-14T10:53:22;15.70;;;3.07;;
22967;SDS011;11650;48.106;-1.696;2024-02-14T10:55:50;24.03;;;3.90;;
22967;SDS011;11650;48.106;-1.696;2024-02-14T10:58:18;18.43;;;3.17;;
22967;SDS011;11650;48.106;-1.696;2024-02-14T11:00:44;18.03;;;4.23;;
22967;SDS011;11650;48.106;-1.696;2024-02-14T11:03:11;19.03;;;4.30;;
22967;SDS011;11650;48.106;-1.696;2024-02-14T11:05:43;28.03;;;9.80;;
22967;SDS011;11650;48.106;-1.696;2024-02-14T11:08:13;17.30;;;2.90;;
22967;SDS011;11650;48.106;-1.696;2024-02-14T11:10:39;18.00;;;3.27;;
22967;SDS011;11650;48.106;-1.696;2024-02-14T11:13:09;17.83;;;4.07;;
22967;SDS011;11650;48.106;-1.696;2024-02-14T11:15:37;16.20;;;3.80;;
22967;SDS011;11650;48.106;-1.696;2024-02-14T11:18:05;18.47;;;3.03;;
22967;SDS011;11650;48.106;-1.696;2024-02-14T11:20:35;16.50;;;3.03;;
22967;SDS011;11650;48.106;-1.696;2024-02-14T11:23:04;18.57;;;3.67;;
22967;SDS011;11650;48.106;-1.696;2024-02-14T11:25:34;14.00;;;2.90;;
22967;SDS011;11650;48.106;-1.696;2024-02-14T11:28:01;14.27;;;2.63;;
22967;SDS011;11650;48.106;-1.696;2024-02-14T11:30:50;18.37;;;3.10;;
22967;SDS011;11650;48.106;-1.696;2024-02-14T11:33:20;15.43;;;3.00;;
22967;SDS011;11650;48.106;-1.696;2024-02-14T11:35:48;18.73;;;3.20;;
22967;SDS011;11650;48.106;-1.696;2024-02-14T11:38:21;11.37;;;2.40;;
22967;SDS011;11650;48.106;-1.696;2024-02-14T11:40:48;17.00;;;2.90;;
22967;SDS011;11650;48.106;-1.696;2024-02-14T11:43:15;12.87;;;2.70;;
22967;SDS011;11650;48.106;-1.696;2024-02-14T11:45:44;15.67;;;2.80;;
22967;SDS011;11650;48.106;-1.696;2024-02-14T11:48:12;14.00;;;2.67;;
22967;SDS011;11650;48.106;-1.696;2024-02-14T11:50:41;17.97;;;3.07;;
22967;SDS011;11650;48.106;-1.696;2024-02-14T11:53:09;21.50;;;2.80;;
22967;SDS011;11650;48.106;-1.696;2024-02-14T11:55:36;19.50;;;2.97;;
22967;SDS011;11650;48.106;-1.696;2024-02-14T11:58:06;16.47;;;2.67;;
22967;SDS011;11650;48.106;-1.696;2024-02-14T12:00:33;16.30;;;3.23;;
22967;SDS011;11650;48.106;-1.696;2024-02-14T12:03:00;17.50;;;3.10;;
22967;SDS011;11650;48.106;-1.696;2024-02-14T12:05:26;14.07;;;2.60;;
22967;SDS011;11650;48.106;-1.696;2024-02-14T12:07:52;13.77;;;2.30;;
22967;SDS011;11650;48.106;-1.696;2024-02-14T12:10:18;18.97;;;2.73;;
22967;SDS011;11650;48.106;-1.696;2024-02-14T12:12:46;11.03;;;2.50;;
22967;SDS011;11650;48.106;-1.696;2024-02-14T12:15:12;13.67;;;2.60;;
22967;SDS011;11650;48.106;-1.696;2024-02-14T12:17:40;15.70;;;2.27;;
22967;SDS011;11650;48.106;-1.696;2024-02-14T12:20:09;17.93;;;3.10;;
22967;SDS011;11650;48.106;-1.696;2024-02-14T12:22:38;10.23;;;2.53;;
22967;SDS011;11650;48.106;-1.696;2024-02-14T12:25:05;14.60;;;2.97;;
22967;SDS011;11650;48.106;-1.696;2024-02-14T12:27:36;12.60;;;2.37;;
22967;SDS011;11650;48.106;-1.696;2024-02-14T12:30:03;14.70;;;2.70;;
22967;SDS011;11650;48.106;-1.696;2024-02-14T12:32:31;12.83;;;3.47;;
22967;SDS011;11650;48.106;-1.696;2024-02-14T12:34:57;15.57;;;3.00;;
22967;SDS011;11650;48.106;-1.696;2024-02-14T12:37:23;14.20;;;2.70;;
22967;SDS011;11650;48.106;-1.696;2024-02-14T12:39:49;17.97;;;2.77;;
22967;SDS011;11650;48.106;-1.696;2024-02-14T12:42:15;15.33;;;2.93;;
22967;SDS011;11650;48.106;-1.696;2024-02-14T12:44:43;13.73;;;2.70;;
22967;SDS011;11650;48.106;-1.696;2024-02-14T12:47:09;14.67;;;2.73;;
22967;SDS011;11650;48.106;-1.696;2024-02-14T12:49:34;16.23;;;2.83;;
22967;SDS011;11650;48.106;-1.696;2024-02-14T12:52:00;18.70;;;3.20;;
22967;SDS011;11650;48.106;-1.696;2024-02-14T12:54:25;14.03;;;2.60;;
22967;SDS011;11650;48.106;-1.696;2024-02-14T12:56:51;11.83;;;2.50;;
22967;SDS011;11650;48.106;-1.696;2024-02-14T12:59:17;13.90;;;2.27;;
22967;SDS011;11650;48.106;-1.696;2024-02-14T13:01:43;13.50;;;2.63;;
22967;SDS011;11650;48.106;-1.696;2024-02-14T13:04:09;12.40;;;2.30;;
22967;SDS011;11650;48.106;-1.696;2024-02-14T13:06:35;10.20;;;1.70;;
22967;SDS011;11650;48.106;-1.696;2024-02-14T13:09:02;10.33;;;2.33;;
22967;SDS011;11650;48.106;-1.696;2024-02-14T13:11:30;14.00;;;2.13;;
22967;SDS011;11650;48.106;-1.696;2024-02-14T13:13:56;14.17;;;2.30;;
22967;SDS011;11650;48.106;-1.696;2024-02-14T13:16:22;12.80;;;2.33;;
22967;SDS011;11650;48.106;-1.696;2024-02-14T13:18:48;16.43;;;2.93;;
22967;SDS011;11650;48.106;-1.696;2024-02-14T13:21:14;11.00;;;2.40;;
22967;SDS011;11650;48.106;-1.696;2024-02-14T13:23:41;13.93;;;2.07;;
22967;SDS011;11650;48.106;-1.696;2024-02-14T13:26:07;13.73;;;2.57;;
22967;SDS011;11650;48.106;-1.696;2024-02-14T13:28:33;10.73;;;2.33;;
22967;SDS011;11650;48.106;-1.696;2024-02-14T13:30:58;15.10;;;2.70;;
22967;SDS011;11650;48.106;-1.696;2024-02-14T13:33:24;15.60;;;2.13;;
22967;SDS011;11650;48.106;-1.696;2024-02-14T13:35:50;12.43;;;2.20;;
22967;SDS011;11650;48.106;-1.696;2024-02-14T13:38:16;12.97;;;2.33;;
22967;SDS011;11650;48.106;-1.696;2024-02-14T13:40:42;13.73;;;2.40;;
22967;SDS011;11650;48.106;-1.696;2024-02-14T13:43:08;15.27;;;2.50;;
22967;SDS011;11650;48.106;-1.696;2024-02-14T13:45:42;11.10;;;2.27;;
22967;SDS011;11650;48.106;-1.696;2024-02-14T13:48:09;8.93;;;2.00;;
22967;SDS011;11650;48.106;-1.696;2024-02-14T13:50:35;10.13;;;1.90;;
22967;SDS011;11650;48.106;-1.696;2024-02-14T13:53:05;12.43;;;2.13;;
22967;SDS011;11650;48.106;-1.696;2024-02-14T13:55:31;10.57;;;2.10;;
22967;SDS011;11650;48.106;-1.696;2024-02-14T13:57:57;13.03;;;2.13;;
22967;SDS011;11650;48.106;-1.696;2024-02-14T14:00:23;12.23;;;2.47;;
22967;SDS011;11650;48.106;-1.696;2024-02-14T14:02:48;13.03;;;2.40;;
22967;SDS011;11650;48.106;-1.696;2024-02-14T14:05:14;12.90;;;2.33;;
22967;SDS011;11650;48.106;-1.696;2024-02-14T14:07:39;10.83;;;2.13;;
22967;SDS011;11650;48.106;-1.696;2024-02-14T14:10:06;10.20;;;2.13;;
22967;SDS011;11650;48.106;-1.696;2024-02-14T14:12:32;15.97;;;2.30;;
22967;SDS011;11650;48.106;-1.696;2024-02-14T14:14:58;10.43;;;2.10;;
22967;SDS011;11650;48.106;-1.696;2024-02-14T14:17:24;12.50;;;2.33;;
22967;SDS011;11650;48.106;-1.696;2024-02-14T14:19:50;17.23;;;2.77;;